createdAt,value
2022-12-03T00:00:57.717Z,4.50
2022-12-03T00:03:43.551Z,4.50
2022-12-03T00:06:34.312Z,4.50
2022-12-03T00:09:20.714Z,4.50
2022-12-03T00:12:07.362Z,4.50
2022-12-03T00:14:54.288Z,4.50
2022-12-03T00:17:41.244Z,4.50
2022-12-03T00:20:27.748Z,4.50
2022-12-03T00:23:14.469Z,4.50
2022-12-03T00:26:00.803Z,4.50
2022-12-03T00:28:47.578Z,4.50
2022-12-03T00:31:34.756Z,4.40
2022-12-03T00:34:22.921Z,4.40
2022-12-03T00:37:09.954Z,4.40
2022-12-03T00:39:57.014Z,4.40
2022-12-03T00:42:43.437Z,4.40
2022-12-03T00:45:30.459Z,4.40
2022-12-03T00:48:16.091Z,4.40
2022-12-03T00:51:01.560Z,4.40
2022-12-03T00:53:46.934Z,4.40
2022-12-03T00:56:32.270Z,4.50
2022-12-03T00:59:17.533Z,4.50
2022-12-03T01:02:03.091Z,4.50
2022-12-03T01:04:48.401Z,4.50
2022-12-03T01:07:33.747Z,4.50
2022-12-03T01:10:23.070Z,4.50
2022-12-03T01:13:08.128Z,4.40
2022-12-03T01:15:53.482Z,4.40
2022-12-03T01:18:38.877Z,4.40
2022-12-03T01:21:24.289Z,4.50
2022-12-03T01:24:10.476Z,4.50
2022-12-03T01:26:56.629Z,4.50
2022-12-03T01:29:41.903Z,4.50
2022-12-03T01:32:27.412Z,4.50
2022-12-03T01:35:12.763Z,4.50
2022-12-03T01:37:58.080Z,4.50
2022-12-03T01:40:43.374Z,4.50
2022-12-03T01:43:28.959Z,4.50
2022-12-03T01:46:19.780Z,4.50
2022-12-03T01:49:05.523Z,4.40
2022-12-03T01:51:52.863Z,4.40
2022-12-03T01:54:42.194Z,4.40
2022-12-03T01:57:32.135Z,4.40
2022-12-03T02:00:23.148Z,4.40
2022-12-03T02:03:16.344Z,4.50
2022-12-03T02:06:01.501Z,4.50
2022-12-03T02:08:48.650Z,4.50
2022-12-03T02:11:36.839Z,4.50
2022-12-03T02:14:22.281Z,4.50
2022-12-03T02:17:07.526Z,4.50
2022-12-03T02:19:53.970Z,4.50
2022-12-03T02:22:59.174Z,4.50
2022-12-03T02:25:44.193Z,4.50
2022-12-03T02:28:29.601Z,4.50
2022-12-03T02:31:15.202Z,4.50
2022-12-03T02:34:06.367Z,4.50
2022-12-03T02:36:51.732Z,4.50
2022-12-03T02:39:40.548Z,4.50
2022-12-03T02:42:34.921Z,4.40
2022-12-03T02:45:27.601Z,4.40
2022-12-03T02:48:33.038Z,4.50
2022-12-03T02:51:18.150Z,4.50
2022-12-03T02:54:03.875Z,4.40
2022-12-03T02:56:49.575Z,4.50
2022-12-03T02:59:34.964Z,4.50
2022-12-03T03:02:21.594Z,4.50
2022-12-03T03:05:09.526Z,4.50
2022-12-03T03:07:58.244Z,4.50
2022-12-03T03:10:44.556Z,4.50
2022-12-03T03:13:31.805Z,4.50
2022-12-03T03:16:17.294Z,4.50
2022-12-03T03:19:02.779Z,4.50
2022-12-03T03:21:48.109Z,4.50
2022-12-03T03:24:33.444Z,4.50
2022-12-03T03:27:18.865Z,4.60
2022-12-03T03:30:04.862Z,4.60
2022-12-03T03:32:50.347Z,4.50
2022-12-03T03:35:36.797Z,4.60
2022-12-03T03:38:23.493Z,4.60
2022-12-03T03:41:10.596Z,4.50
2022-12-03T03:43:56.653Z,4.50
2022-12-03T03:46:42.992Z,4.50
2022-12-03T03:49:28.702Z,4.50
2022-12-03T03:52:14.133Z,4.60
2022-12-03T03:54:59.530Z,4.50
2022-12-03T03:57:45.070Z,4.50
2022-12-03T04:00:30.955Z,4.60
2022-12-03T04:03:16.337Z,4.60
2022-12-03T04:06:02.057Z,4.60
2022-12-03T04:08:47.214Z,4.60
2022-12-03T04:11:51.093Z,4.60
2022-12-03T04:14:36.302Z,4.60
2022-12-03T04:17:21.759Z,4.60
2022-12-03T04:20:07.314Z,4.60
2022-12-03T04:22:52.594Z,4.60
2022-12-03T04:25:56.652Z,4.60
2022-12-03T04:28:50.838Z,4.50
2022-12-03T04:31:54.474Z,4.50
2022-12-03T04:34:58.210Z,4.50
2022-12-03T04:37:43.517Z,4.50
2022-12-03T04:40:47.351Z,4.50
2022-12-03T04:43:34.468Z,4.50
2022-12-03T04:46:19.727Z,4.60
2022-12-03T04:49:05.064Z,4.50
2022-12-03T04:51:50.417Z,4.50
2022-12-03T04:54:36.415Z,4.40
2022-12-03T04:57:21.511Z,4.40
2022-12-03T05:00:07.569Z,4.50
2022-12-03T05:02:54.142Z,4.50
2022-12-03T05:05:39.847Z,4.50
2022-12-03T05:08:25.491Z,4.50
2022-12-03T05:11:10.714Z,4.50
2022-12-03T05:13:56.038Z,4.50
2022-12-03T05:16:41.484Z,4.50
2022-12-03T05:19:46.769Z,4.50
2022-12-03T05:22:31.842Z,4.50
2022-12-03T05:25:17.346Z,4.50
2022-12-03T05:28:02.942Z,4.50
2022-12-03T05:30:48.174Z,4.60
2022-12-03T05:33:33.657Z,4.60
2022-12-03T05:36:18.972Z,4.60
2022-12-03T05:39:04.526Z,4.60
2022-12-03T05:42:08.310Z,4.60
2022-12-03T05:44:53.784Z,4.60
2022-12-03T05:47:39.059Z,4.60
2022-12-03T05:50:27.798Z,4.60
2022-12-03T05:53:13.781Z,4.60
2022-12-03T05:55:58.990Z,4.60
2022-12-03T05:58:44.309Z,4.60
2022-12-03T06:01:29.745Z,4.60
2022-12-03T06:04:15.118Z,4.60
2022-12-03T06:07:00.527Z,4.60
2022-12-03T06:09:46.101Z,4.60
2022-12-03T06:12:31.414Z,4.60
2022-12-03T06:15:17.420Z,4.60
2022-12-03T06:18:02.793Z,4.60
2022-12-03T06:20:48.053Z,4.60
2022-12-03T06:23:33.318Z,4.60
2022-12-03T06:26:18.721Z,4.60
2022-12-03T06:29:04.104Z,4.60
2022-12-03T06:31:49.451Z,4.50
2022-12-03T06:34:34.940Z,4.50
2022-12-03T06:37:20.278Z,4.40
2022-12-03T06:40:06.509Z,4.40
2022-12-03T06:42:52.188Z,4.40
2022-12-03T06:45:37.280Z,4.40
2022-12-03T06:48:22.711Z,4.40
2022-12-03T06:51:07.974Z,4.50
2022-12-03T06:53:53.211Z,4.50
2022-12-03T06:56:44.943Z,4.50
2022-12-03T06:59:34.049Z,4.50
2022-12-03T07:02:19.491Z,4.50
2022-12-03T07:05:05.068Z,4.50
2022-12-03T07:07:52.191Z,4.60
2022-12-03T07:10:37.326Z,4.50
2022-12-03T07:13:22.617Z,4.40
2022-12-03T07:16:08.169Z,4.40
2022-12-03T07:18:53.538Z,4.40
2022-12-03T07:21:38.852Z,4.40
2022-12-03T07:24:24.207Z,4.20
2022-12-03T07:27:09.709Z,4.30
2022-12-03T07:29:55.125Z,4.30
2022-12-03T07:32:40.593Z,4.20
2022-12-03T07:35:26.138Z,4.20
2022-12-03T07:38:11.543Z,4.20
2022-12-03T07:40:56.934Z,4.10
2022-12-03T07:43:42.292Z,4.20
2022-12-03T07:46:27.865Z,4.00
2022-12-03T07:49:13.374Z,3.90
2022-12-03T07:51:58.433Z,3.90
2022-12-03T07:54:44.432Z,4.00
2022-12-03T07:57:29.794Z,4.10
2022-12-03T08:00:15.637Z,4.20
2022-12-03T08:03:00.992Z,4.30
2022-12-03T08:05:46.386Z,4.40
2022-12-03T08:08:32.236Z,4.40
2022-12-03T08:11:17.522Z,4.50
2022-12-03T08:14:14.664Z,4.50
2022-12-03T08:16:59.792Z,4.50
2022-12-03T08:19:46.996Z,4.20
2022-12-03T08:22:32.202Z,4.10
2022-12-03T08:25:24.802Z,4.10
2022-12-03T08:28:21.055Z,4.10
2022-12-03T08:31:19.464Z,4.20
2022-12-03T08:34:20.277Z,4.30
2022-12-03T08:37:17.651Z,4.40
2022-12-03T08:40:12.558Z,4.40
2022-12-03T08:42:57.936Z,4.40
2022-12-03T08:45:43.615Z,4.50
2022-12-03T08:48:33.864Z,4.50
2022-12-03T08:51:27.120Z,4.50
2022-12-03T08:54:19.354Z,4.40
2022-12-03T08:57:23.050Z,4.30
2022-12-03T09:00:34.616Z,4.00
2022-12-03T09:03:19.990Z,4.10
2022-12-03T09:06:05.661Z,4.20
2022-12-03T09:08:50.813Z,4.50
2022-12-03T09:11:35.989Z,4.60
2022-12-03T09:14:22.552Z,4.80
2022-12-03T09:17:07.954Z,4.80
2022-12-03T09:19:53.343Z,5.00
2022-12-03T09:22:38.602Z,5.00
2022-12-03T09:25:24.089Z,5.00
2022-12-03T09:28:09.518Z,5.10
2022-12-03T09:30:55.126Z,5.10
2022-12-03T09:33:40.912Z,5.20
2022-12-03T09:36:26.246Z,5.20
2022-12-03T09:39:12.324Z,5.30
2022-12-03T09:41:57.812Z,5.30
2022-12-03T09:44:43.771Z,5.30
2022-12-03T09:47:30.665Z,5.30
2022-12-03T09:50:22.216Z,5.30
2022-12-03T09:53:10.663Z,5.30
2022-12-03T09:55:59.425Z,5.40
2022-12-03T09:58:44.590Z,5.40
2022-12-03T10:01:31.030Z,5.40
2022-12-03T10:04:16.684Z,5.30
2022-12-03T10:07:02.104Z,5.40
2022-12-03T10:09:47.397Z,5.30
2022-12-03T10:12:32.830Z,5.20
2022-12-03T10:15:21.742Z,5.20
2022-12-03T10:18:19.974Z,5.20
2022-12-03T10:21:10.333Z,5.30
2022-12-03T10:24:17.877Z,5.30
2022-12-03T10:27:20.009Z,5.40
2022-12-03T10:30:19.643Z,5.40
2022-12-03T10:33:18.458Z,5.30
2022-12-03T10:36:20.360Z,5.30
2022-12-03T10:39:13.547Z,5.30
2022-12-03T10:42:15.345Z,5.20
2022-12-03T10:45:12.997Z,5.20
2022-12-03T10:48:11.558Z,5.10
2022-12-03T10:51:13.307Z,5.10
2022-12-03T10:53:58.869Z,5.30
2022-12-03T10:56:45.182Z,5.20
2022-12-03T10:59:33.364Z,5.20
2022-12-03T11:02:21.982Z,5.20
2022-12-03T11:05:07.688Z,5.20
2022-12-03T11:07:53.011Z,5.10
2022-12-03T11:10:38.531Z,5.10
2022-12-03T11:13:28.783Z,5.10
2022-12-03T11:16:34.364Z,5.00
2022-12-03T11:19:39.482Z,5.10
2022-12-03T11:22:28.853Z,5.00
2022-12-03T11:25:26.643Z,5.00
2022-12-03T11:28:14.737Z,4.90
2022-12-03T11:31:29.219Z,4.90
2022-12-03T11:34:20.755Z,4.80
2022-12-03T11:37:12.308Z,4.90
2022-12-03T11:40:17.510Z,4.90
2022-12-03T11:43:02.663Z,4.90
2022-12-03T11:45:48.233Z,4.90
2022-12-03T11:48:34.583Z,4.70
2022-12-03T11:51:25.706Z,4.70
2022-12-03T11:54:17.596Z,4.70
2022-12-03T11:57:03.555Z,4.70
2022-12-03T12:00:05.683Z,4.80
2022-12-03T12:02:55.229Z,4.80
2022-12-03T12:05:40.687Z,4.80
2022-12-03T12:08:25.929Z,4.80
2022-12-03T12:11:40.421Z,4.80
2022-12-03T12:14:26.724Z,4.80
2022-12-03T12:17:35.548Z,4.80
2022-12-03T12:20:27.763Z,4.80
2022-12-03T12:23:28.884Z,4.70
2022-12-03T12:26:14.264Z,4.80
2022-12-03T12:28:59.731Z,4.80
2022-12-03T12:31:48.265Z,4.80
2022-12-03T12:34:50.373Z,4.80
2022-12-03T12:37:47.166Z,4.90
2022-12-03T12:40:36.401Z,4.90
2022-12-03T12:43:30.758Z,4.90
2022-12-03T12:46:46.810Z,4.80
2022-12-03T12:49:23.410Z,4.80
2022-12-03T12:52:14.131Z,4.90
2022-12-03T12:55:04.744Z,4.80
2022-12-03T12:57:51.054Z,4.80
2022-12-03T13:00:36.418Z,4.80
2022-12-03T13:03:32.111Z,4.80
2022-12-03T13:06:17.764Z,4.80
2022-12-03T13:09:02.935Z,4.80
2022-12-03T13:11:58.461Z,4.80
2022-12-03T13:14:43.986Z,4.80
2022-12-03T13:17:29.476Z,4.60
2022-12-03T13:20:17.113Z,4.60
2022-12-03T13:23:02.763Z,5.00
2022-12-03T13:26:18.718Z,5.30
2022-12-03T13:28:57.686Z,5.20
2022-12-03T13:31:52.948Z,5.10
2022-12-03T13:34:37.870Z,5.00
2022-12-03T13:37:26.859Z,5.10
2022-12-03T13:40:30.671Z,4.80
2022-12-03T13:43:18.553Z,4.60
2022-12-03T13:46:04.158Z,4.60
2022-12-03T13:48:49.544Z,4.70
2022-12-03T13:51:35.531Z,4.60
2022-12-03T13:54:27.592Z,4.70
2022-12-03T13:57:13.093Z,4.70
2022-12-03T13:59:59.940Z,4.60
2022-12-03T14:02:47.003Z,4.70
2022-12-03T14:05:32.697Z,4.70
2022-12-03T14:08:18.100Z,4.80
2022-12-03T14:11:03.934Z,4.90
2022-12-03T14:13:49.256Z,5.10
2022-12-03T14:16:34.745Z,5.10
2022-12-03T14:19:20.325Z,5.20
2022-12-03T14:22:07.952Z,5.30
2022-12-03T14:24:54.135Z,5.30
2022-12-03T14:27:39.382Z,5.40
2022-12-03T14:30:24.745Z,5.40
2022-12-03T14:33:10.231Z,5.50
2022-12-03T14:35:56.251Z,5.50
2022-12-03T14:38:41.600Z,5.50
2022-12-03T14:41:45.469Z,5.50
2022-12-03T14:44:30.644Z,5.60
2022-12-03T14:47:19.295Z,5.60
2022-12-03T14:50:05.210Z,5.50
2022-12-03T14:52:50.305Z,5.60
2022-12-03T14:55:35.727Z,5.60
2022-12-03T14:58:21.185Z,5.50
2022-12-03T15:01:06.494Z,5.50
2022-12-03T15:03:51.899Z,5.40
2022-12-03T15:06:37.103Z,5.30
2022-12-03T15:09:22.584Z,5.20
2022-12-03T15:12:08.043Z,5.20
2022-12-03T15:14:53.695Z,5.10
2022-12-03T15:17:39.201Z,5.10
2022-12-03T15:20:24.645Z,5.00
2022-12-03T15:23:14.205Z,5.00
2022-12-03T15:26:00.304Z,5.00
2022-12-03T15:28:48.434Z,5.00
2022-12-03T15:31:34.197Z,4.90
2022-12-03T15:34:22.816Z,4.80
2022-12-03T15:37:09.148Z,4.80
2022-12-03T15:39:54.887Z,4.80
2022-12-03T15:42:40.519Z,4.90
2022-12-03T15:45:25.772Z,4.90
2022-12-03T15:48:11.167Z,4.90
2022-12-03T15:50:56.582Z,5.20
2022-12-03T15:53:42.572Z,4.90
2022-12-03T15:56:27.867Z,4.90
2022-12-03T15:59:13.346Z,4.80
2022-12-03T16:01:58.825Z,4.90
2022-12-03T16:04:44.747Z,4.80
2022-12-03T16:07:29.997Z,4.90
2022-12-03T16:10:17.510Z,4.80
2022-12-03T16:13:02.845Z,4.80
2022-12-03T16:15:48.366Z,4.80
2022-12-03T16:18:33.796Z,4.80
2022-12-03T16:21:23.498Z,4.80
2022-12-03T16:24:11.782Z,4.80
2022-12-03T16:26:57.361Z,4.50
2022-12-03T16:29:42.712Z,4.50
2022-12-03T16:32:28.130Z,4.40
2022-12-03T16:35:13.641Z,4.40
2022-12-03T16:37:59.002Z,4.30
2022-12-03T16:40:44.601Z,4.30
2022-12-03T16:43:30.166Z,4.20
2022-12-03T16:46:15.399Z,4.30
2022-12-03T16:49:00.783Z,4.30
2022-12-03T16:51:46.206Z,4.40
2022-12-03T16:54:31.982Z,4.40
2022-12-03T16:57:17.258Z,4.40
2022-12-03T17:00:03.534Z,4.50
2022-12-03T17:02:48.961Z,4.50
2022-12-03T17:05:34.640Z,4.50
2022-12-03T17:08:19.942Z,4.50
2022-12-03T17:11:05.584Z,4.60
2022-12-03T17:13:50.545Z,4.60
2022-12-03T17:16:36.017Z,4.70
2022-12-03T17:19:21.254Z,4.60
2022-12-03T17:22:06.721Z,4.60
2022-12-03T17:24:52.480Z,4.70
2022-12-03T17:27:44.625Z,4.70
2022-12-03T17:30:30.532Z,4.70
2022-12-03T17:33:15.845Z,4.70
2022-12-03T17:36:01.676Z,4.80
2022-12-03T17:38:47.059Z,4.80
2022-12-03T17:41:32.414Z,4.80
2022-12-03T17:44:20.928Z,4.70
2022-12-03T17:47:06.433Z,4.70
2022-12-03T17:49:52.300Z,4.70
2022-12-03T17:52:37.968Z,4.70
2022-12-03T17:55:33.612Z,4.70
2022-12-03T17:58:22.908Z,4.70
2022-12-03T18:01:11.441Z,4.70
2022-12-03T18:03:56.899Z,4.70
2022-12-03T18:06:42.334Z,4.70
2022-12-03T18:09:27.721Z,4.70
2022-12-03T18:12:13.202Z,4.80
2022-12-03T18:14:58.638Z,4.80
2022-12-03T18:17:43.937Z,4.80
2022-12-03T18:20:29.446Z,4.80
2022-12-03T18:23:14.963Z,4.80
2022-12-03T18:26:01.895Z,4.80
2022-12-03T18:28:47.367Z,4.80
2022-12-03T18:31:32.684Z,4.80
2022-12-03T18:34:18.104Z,4.80
2022-12-03T18:37:03.576Z,4.80
2022-12-03T18:39:48.946Z,4.80
2022-12-03T18:42:34.394Z,4.80
2022-12-03T18:45:19.678Z,4.80
2022-12-03T18:48:12.840Z,4.80
2022-12-03T18:50:57.954Z,4.80
2022-12-03T18:53:43.675Z,4.70
2022-12-03T18:56:28.830Z,4.80
2022-12-03T18:59:14.456Z,4.80
2022-12-03T19:02:00.005Z,4.80
2022-12-03T19:04:45.551Z,4.90
2022-12-03T19:07:30.999Z,4.80
2022-12-03T19:10:16.309Z,4.90
2022-12-03T19:13:03.589Z,4.80
2022-12-03T19:15:49.150Z,4.90
2022-12-03T19:18:34.754Z,4.90
2022-12-03T19:21:20.287Z,4.90
2022-12-03T19:27:11.702Z,4.80
2022-12-03T19:29:58.061Z,4.80
2022-12-03T19:32:43.246Z,4.90
2022-12-03T19:35:28.534Z,4.80
2022-12-03T19:38:13.773Z,4.90
2022-12-03T19:41:00.310Z,4.90
2022-12-03T19:43:53.695Z,4.90
2022-12-03T19:46:39.070Z,4.90
2022-12-03T19:49:24.770Z,4.90
2022-12-03T19:52:10.063Z,4.90
2022-12-03T19:54:55.472Z,4.90
2022-12-03T19:57:40.665Z,4.90
2022-12-03T20:00:26.034Z,4.90
2022-12-03T20:03:11.448Z,4.90
2022-12-03T20:06:00.259Z,4.90
2022-12-03T20:08:45.979Z,4.90
2022-12-03T20:11:33.250Z,4.90
2022-12-03T20:14:18.858Z,4.90
2022-12-03T20:17:04.284Z,4.90
2022-12-03T20:19:49.698Z,4.90
2022-12-03T20:22:35.290Z,4.90
2022-12-03T20:25:20.541Z,4.90
2022-12-03T20:28:05.938Z,4.90
2022-12-03T20:31:09.579Z,4.90
2022-12-03T20:33:57.929Z,4.90
2022-12-03T20:36:44.156Z,4.90
2022-12-03T20:39:29.636Z,4.80
2022-12-03T20:42:15.044Z,4.90
2022-12-03T20:45:00.332Z,4.80
2022-12-03T20:47:45.667Z,4.80
2022-12-03T20:50:31.209Z,4.90
2022-12-03T20:53:24.758Z,4.90
2022-12-03T20:56:15.848Z,4.90
2022-12-03T20:59:06.636Z,4.90
2022-12-03T21:01:51.885Z,4.90
2022-12-03T21:04:37.158Z,4.90
2022-12-03T21:07:22.562Z,4.80
2022-12-03T21:10:28.526Z,4.80
2022-12-03T21:13:17.924Z,4.80
2022-12-03T21:16:08.929Z,4.80
2022-12-03T21:18:54.930Z,4.80
2022-12-03T21:21:40.054Z,4.80
2022-12-03T21:24:25.555Z,4.90
2022-12-03T21:27:11.051Z,4.80
2022-12-03T21:29:56.774Z,4.90
2022-12-03T21:32:42.239Z,4.80
2022-12-03T21:35:27.621Z,4.80
2022-12-03T21:38:12.987Z,4.90
2022-12-03T21:40:58.932Z,4.90
2022-12-03T21:43:44.703Z,4.80
2022-12-03T21:47:11.700Z,4.80
2022-12-03T21:49:37.647Z,4.90
2022-12-03T21:52:22.808Z,4.90
2022-12-03T21:55:08.638Z,4.80
2022-12-03T21:57:54.123Z,4.90
2022-12-03T22:00:39.433Z,4.90
2022-12-03T22:03:25.080Z,4.80
2022-12-03T22:06:11.258Z,4.80
2022-12-03T22:08:56.278Z,4.80
2022-12-03T22:11:41.770Z,4.80
2022-12-03T22:14:27.911Z,4.80
2022-12-03T22:17:13.008Z,4.80
2022-12-03T22:19:58.290Z,4.80
2022-12-03T22:22:43.848Z,4.80
2022-12-03T22:25:30.428Z,4.80
2022-12-03T22:28:15.670Z,4.80
2022-12-03T22:31:06.420Z,4.80
2022-12-03T22:33:51.803Z,4.80
2022-12-03T22:36:37.677Z,4.90
2022-12-03T22:39:23.087Z,4.80
2022-12-03T22:42:08.530Z,4.80
2022-12-03T22:44:53.902Z,4.80
2022-12-03T22:47:39.337Z,4.70
2022-12-03T22:50:24.650Z,4.80
2022-12-03T22:53:10.410Z,4.70
2022-12-03T22:56:00.783Z,4.70
2022-12-03T22:58:46.129Z,4.80
2022-12-03T23:01:39.654Z,5.20
2022-12-03T23:04:24.726Z,4.80
2022-12-03T23:07:10.336Z,4.70
2022-12-03T23:09:55.991Z,4.70
2022-12-03T23:12:41.556Z,4.70
2022-12-03T23:15:26.958Z,4.70
2022-12-03T23:18:12.515Z,4.70
2022-12-03T23:20:57.877Z,4.70
2022-12-03T23:23:43.245Z,4.70
2022-12-03T23:26:29.164Z,4.70
2022-12-03T23:29:14.316Z,4.70
2022-12-03T23:31:59.706Z,4.70
2022-12-03T23:34:45.090Z,4.60
2022-12-03T23:37:30.926Z,4.70
2022-12-03T23:40:16.144Z,4.70
2022-12-03T23:43:01.511Z,4.70
2022-12-03T23:45:46.957Z,4.70
2022-12-03T23:48:32.781Z,4.70
2022-12-03T23:51:21.305Z,4.80
2022-12-03T23:54:06.578Z,4.80
2022-12-03T23:56:52.029Z,4.80
2022-12-03T23:59:39.079Z,4.80
